CFU weather

Ioannis Kapodistrias International Airport
Kerkyra Island, Corfu, Greece

Public forecast

Using degrees Celsius for public forecast. Weather courtesy of forecast.io.

METAR (pilot weather report)

Retrieved 2019/03/23 12:50 UTC (2 hours ago):

LGKR 231250Z 18008KT CAVOK 22/09 Q1018 NOSIG

TAF (pilot weather forecast)

Retrieved 2019/03/23 12:13 UTC (2 hours ago):

TAF LGKR 231100Z 2312/2412 33010KT 9999 FEW020 BECMG 2316/2318 VRB05KT